Terminal Aerodrome Forecast
Issued by NWS Lake Charles, LA

Home | Current Version | Previous Version | Text Only | Print | Product List | Glossary On
Versions: 1 2 3 4 5 6 7 8 9 10 11 12 13 14
000
FTUS44 KLCH 011700
TAFLFT
TAF
KLFT 011727Z 0118/0218 12005KT P6SM VCTS SCT010CB OVC060
      TEMPO 0118/0120 4SM -SHRA BR OVC010
     FM020100 12005KT 4SM BR VCSH OVC005
     FM020900 10003KT 1SM BR VCSH OVC002=

USA.gov is the U.S. government's official web portal to all federal, state and local government web resources and services.